sensor_id;sensor_type;location;lat;lon;timestamp;pressure;altitude;pressure_sealevel;temperature;humidity
34205;BME280;20471;49.680;20.074;2023-02-05T00:00:55;98598.56;;;-3.94;72.79
34205;BME280;20471;49.680;20.074;2023-02-05T00:03:42;98599.95;;;-3.94;72.70
34205;BME280;20471;49.680;20.074;2023-02-05T00:06:10;98600.38;;;-3.95;72.86
34205;BME280;20471;49.680;20.074;2023-02-05T00:08:38;98599.17;;;-3.96;72.66
34205;BME280;20471;49.680;20.074;2023-02-05T00:11:06;98604.48;;;-3.96;72.47
34205;BME280;20471;49.680;20.074;2023-02-05T00:13:41;98608.25;;;-3.92;72.82
34205;BME280;20471;49.680;20.074;2023-02-05T00:16:12;98605.10;;;-3.95;72.82
34205;BME280;20471;49.680;20.074;2023-02-05T00:18:40;98607.01;;;-4.04;72.80
34205;BME280;20471;49.680;20.074;2023-02-05T00:21:09;98612.27;;;-4.06;73.02
34205;BME280;20471;49.680;20.074;2023-02-05T00:23:37;98612.39;;;-4.09;72.98
34205;BME280;20471;49.680;20.074;2023-02-05T00:26:06;98619.16;;;-4.07;72.80
34205;BME280;20471;49.680;20.074;2023-02-05T00:28:36;98618.13;;;-4.04;72.77
34205;BME280;20471;49.680;20.074;2023-02-05T00:31:13;98623.42;;;-4.05;72.46
34205;BME280;20471;49.680;20.074;2023-02-05T00:33:42;98625.97;;;-4.09;72.10
34205;BME280;20471;49.680;20.074;2023-02-05T00:36:11;98629.17;;;-4.12;72.10
34205;BME280;20471;49.680;20.074;2023-02-05T00:38:40;98632.82;;;-4.12;72.12
34205;BME280;20471;49.680;20.074;2023-02-05T00:41:09;98632.50;;;-4.12;72.12
34205;BME280;20471;49.680;20.074;2023-02-05T00:43:39;98634.73;;;-4.11;72.03
34205;BME280;20471;49.680;20.074;2023-02-05T00:46:09;98634.77;;;-4.09;71.93
34205;BME280;20471;49.680;20.074;2023-02-05T00:48:38;98632.41;;;-4.11;71.90
34205;BME280;20471;49.680;20.074;2023-02-05T00:51:06;98632.75;;;-4.16;72.00
34205;BME280;20471;49.680;20.074;2023-02-05T00:53:34;98633.55;;;-4.18;72.03
34205;BME280;20471;49.680;20.074;2023-02-05T00:56:02;98634.19;;;-4.17;72.29
34205;BME280;20471;49.680;20.074;2023-02-05T00:58:31;98631.77;;;-4.15;72.41
34205;BME280;20471;49.680;20.074;2023-02-05T01:00:59;98635.13;;;-4.12;72.55
34205;BME280;20471;49.680;20.074;2023-02-05T01:03:27;98635.27;;;-4.11;72.66
34205;BME280;20471;49.680;20.074;2023-02-05T01:05:55;98634.78;;;-4.09;72.83
34205;BME280;20471;49.680;20.074;2023-02-05T01:08:23;98631.54;;;-4.05;72.79
34205;BME280;20471;49.680;20.074;2023-02-05T01:10:51;98633.08;;;-3.98;72.77
34205;BME280;20471;49.680;20.074;2023-02-05T01:13:19;98634.02;;;-3.93;72.81
34205;BME280;20471;49.680;20.074;2023-02-05T01:15:48;98637.83;;;-3.92;72.83
34205;BME280;20471;49.680;20.074;2023-02-05T01:18:16;98637.61;;;-3.97;72.91
34205;BME280;20471;49.680;20.074;2023-02-05T01:20:44;98636.67;;;-4.08;72.40
34205;BME280;20471;49.680;20.074;2023-02-05T01:23:12;98635.95;;;-4.11;72.03
34205;BME280;20471;49.680;20.074;2023-02-05T01:25:40;98634.27;;;-4.12;72.04
34205;BME280;20471;49.680;20.074;2023-02-05T01:28:08;98634.39;;;-4.23;71.84
34205;BME280;20471;49.680;20.074;2023-02-05T01:30:36;98637.65;;;-4.31;71.96
34205;BME280;20471;49.680;20.074;2023-02-05T01:33:05;98636.23;;;-4.31;72.38
34205;BME280;20471;49.680;20.074;2023-02-05T01:35:33;98632.31;;;-4.27;72.52
34205;BME280;20471;49.680;20.074;2023-02-05T01:38:01;98631.91;;;-4.26;72.38
34205;BME280;20471;49.680;20.074;2023-02-05T01:40:29;98631.92;;;-4.32;72.34
34205;BME280;20471;49.680;20.074;2023-02-05T01:42:57;98635.25;;;-4.38;72.25
34205;BME280;20471;49.680;20.074;2023-02-05T01:45:41;98636.61;;;-4.43;72.35
34205;BME280;20471;49.680;20.074;2023-02-05T01:48:19;98640.10;;;-4.46;72.52
34205;BME280;20471;49.680;20.074;2023-02-05T01:51:01;98639.66;;;-4.47;72.52
34205;BME280;20471;49.680;20.074;2023-02-05T01:53:34;98636.28;;;-4.49;72.61
34205;BME280;20471;49.680;20.074;2023-02-05T01:58:35;98632.09;;;-4.53;72.57
34205;BME280;20471;49.680;20.074;2023-02-05T02:01:04;98629.31;;;-4.54;72.72
34205;BME280;20471;49.680;20.074;2023-02-05T02:03:33;98627.14;;;-4.53;72.87
34205;BME280;20471;49.680;20.074;2023-02-05T02:06:01;98628.96;;;-4.54;72.77
34205;BME280;20471;49.680;20.074;2023-02-05T02:08:30;98631.40;;;-4.56;72.88
34205;BME280;20471;49.680;20.074;2023-02-05T02:11:01;98630.31;;;-4.62;72.73
34205;BME280;20471;49.680;20.074;2023-02-05T02:13:32;98633.07;;;-4.64;72.82
34205;BME280;20471;49.680;20.074;2023-02-05T02:16:02;98636.10;;;-4.64;72.72
34205;BME280;20471;49.680;20.074;2023-02-05T02:18:33;98632.70;;;-4.63;72.81
34205;BME280;20471;49.680;20.074;2023-02-05T02:21:18;98636.32;;;-4.59;72.92
34205;BME280;20471;49.680;20.074;2023-02-05T02:24:12;98638.41;;;-4.56;73.13
34205;BME280;20471;49.680;20.074;2023-02-05T02:27:10;98639.38;;;-4.51;73.35
34205;BME280;20471;49.680;20.074;2023-02-05T02:30:04;98647.66;;;-4.46;73.47
34205;BME280;20471;49.680;20.074;2023-02-05T02:32:42;98655.64;;;-4.44;73.53
34205;BME280;20471;49.680;20.074;2023-02-05T02:35:22;98654.99;;;-4.45;73.47
34205;BME280;20471;49.680;20.074;2023-02-05T02:40:44;98652.81;;;-4.47;73.36
34205;BME280;20471;49.680;20.074;2023-02-05T02:43:16;98653.73;;;-4.42;73.64
34205;BME280;20471;49.680;20.074;2023-02-05T02:45:51;98655.10;;;-4.35;73.74
34205;BME280;20471;49.680;20.074;2023-02-05T02:48:23;98660.15;;;-4.28;73.73
34205;BME280;20471;49.680;20.074;2023-02-05T02:50:53;98657.73;;;-4.23;73.94
34205;BME280;20471;49.680;20.074;2023-02-05T02:53:27;98654.20;;;-4.20;73.89
34205;BME280;20471;49.680;20.074;2023-02-05T02:55:57;98657.66;;;-4.25;73.59
34205;BME280;20471;49.680;20.074;2023-02-05T02:58:32;98660.79;;;-4.27;73.70
34205;BME280;20471;49.680;20.074;2023-02-05T03:01:04;98658.86;;;-4.24;73.91
34205;BME280;20471;49.680;20.074;2023-02-05T03:03:38;98657.13;;;-4.18;74.12
34205;BME280;20471;49.680;20.074;2023-02-05T03:06:09;98657.21;;;-4.14;74.03
34205;BME280;20471;49.680;20.074;2023-02-05T03:08:46;98659.48;;;-4.11;74.21
34205;BME280;20471;49.680;20.074;2023-02-05T03:11:17;98661.29;;;-4.09;74.15
34205;BME280;20471;49.680;20.074;2023-02-05T03:13:46;98664.17;;;-4.10;74.13
34205;BME280;20471;49.680;20.074;2023-02-05T03:16:15;98667.01;;;-4.07;74.15
34205;BME280;20471;49.680;20.074;2023-02-05T03:18:44;98668.27;;;-4.05;74.13
34205;BME280;20471;49.680;20.074;2023-02-05T03:21:40;98671.77;;;-4.05;74.18
34205;BME280;20471;49.680;20.074;2023-02-05T03:24:09;98673.41;;;-4.05;74.17
34205;BME280;20471;49.680;20.074;2023-02-05T03:26:38;98674.24;;;-4.05;74.42
34205;BME280;20471;49.680;20.074;2023-02-05T03:29:10;98668.44;;;-4.05;74.20
34205;BME280;20471;49.680;20.074;2023-02-05T03:37:17;98671.64;;;-4.17;74.18
34205;BME280;20471;49.680;20.074;2023-02-05T03:56:12;98669.35;;;-4.08;75.05
34205;BME280;20471;49.680;20.074;2023-02-05T03:58:46;98663.85;;;-4.13;74.78
34205;BME280;20471;49.680;20.074;2023-02-05T04:01:15;98665.08;;;-4.13;74.77
34205;BME280;20471;49.680;20.074;2023-02-05T04:03:45;98661.89;;;-4.13;74.64
34205;BME280;20471;49.680;20.074;2023-02-05T04:06:13;98667.38;;;-4.11;74.72
34205;BME280;20471;49.680;20.074;2023-02-05T04:08:41;98666.95;;;-4.09;74.75
34205;BME280;20471;49.680;20.074;2023-02-05T04:11:11;98667.70;;;-4.10;74.68
34205;BME280;20471;49.680;20.074;2023-02-05T04:13:39;98667.64;;;-4.18;74.48
34205;BME280;20471;49.680;20.074;2023-02-05T04:16:07;98664.57;;;-4.28;74.41
34205;BME280;20471;49.680;20.074;2023-02-05T04:18:35;98658.55;;;-4.37;74.50
34205;BME280;20471;49.680;20.074;2023-02-05T04:21:03;98659.69;;;-4.41;74.41
34205;BME280;20471;49.680;20.074;2023-02-05T04:23:31;98662.27;;;-4.43;74.42
34205;BME280;20471;49.680;20.074;2023-02-05T04:25:59;98661.32;;;-4.42;74.57
34205;BME280;20471;49.680;20.074;2023-02-05T04:28:27;98665.77;;;-4.40;74.64
34205;BME280;20471;49.680;20.074;2023-02-05T04:30:55;98669.65;;;-4.37;74.57
34205;BME280;20471;49.680;20.074;2023-02-05T04:33:24;98679.96;;;-4.46;74.40
34205;BME280;20471;49.680;20.074;2023-02-05T04:35:56;98682.14;;;-4.56;74.46
34205;BME280;20471;49.680;20.074;2023-02-05T04:38:25;98683.80;;;-4.57;74.52
34205;BME280;20471;49.680;20.074;2023-02-05T04:40:54;98683.48;;;-4.58;74.39
34205;BME280;20471;49.680;20.074;2023-02-05T04:43:22;98685.52;;;-4.62;74.26
34205;BME280;20471;49.680;20.074;2023-02-05T04:45:50;98687.36;;;-4.67;74.26
34205;BME280;20471;49.680;20.074;2023-02-05T04:48:18;98685.19;;;-4.73;74.29
34205;BME280;20471;49.680;20.074;2023-02-05T04:50:47;98683.66;;;-4.74;74.22
34205;BME280;20471;49.680;20.074;2023-02-05T04:53:15;98684.40;;;-4.74;74.18
34205;BME280;20471;49.680;20.074;2023-02-05T04:55:43;98685.52;;;-4.79;74.21
34205;BME280;20471;49.680;20.074;2023-02-05T04:58:11;98684.04;;;-4.81;74.24
34205;BME280;20471;49.680;20.074;2023-02-05T05:00:39;98683.48;;;-4.80;74.08
34205;BME280;20471;49.680;20.074;2023-02-05T05:03:07;98682.64;;;-4.80;73.82
34205;BME280;20471;49.680;20.074;2023-02-05T05:05:35;98692.77;;;-4.85;73.75
34205;BME280;20471;49.680;20.074;2023-02-05T05:08:03;98692.10;;;-4.89;73.36
34205;BME280;20471;49.680;20.074;2023-02-05T05:10:31;98694.23;;;-4.96;73.25
34205;BME280;20471;49.680;20.074;2023-02-05T05:12:59;98694.59;;;-5.00;73.31
34205;BME280;20471;49.680;20.074;2023-02-05T05:15:27;98697.88;;;-5.01;73.35
34205;BME280;20471;49.680;20.074;2023-02-05T05:17:56;98698.70;;;-5.04;73.44
34205;BME280;20471;49.680;20.074;2023-02-05T05:20:24;98699.59;;;-5.04;73.53
34205;BME280;20471;49.680;20.074;2023-02-05T05:22:52;98698.48;;;-5.03;73.55
34205;BME280;20471;49.680;20.074;2023-02-05T05:25:20;98700.02;;;-4.99;73.52
34205;BME280;20471;49.680;20.074;2023-02-05T05:27:48;98699.79;;;-4.95;73.33
34205;BME280;20471;49.680;20.074;2023-02-05T05:30:17;98703.90;;;-4.93;73.34
34205;BME280;20471;49.680;20.074;2023-02-05T05:32:45;98706.14;;;-4.95;73.27
34205;BME280;20471;49.680;20.074;2023-02-05T05:35:13;98707.58;;;-4.99;73.27
34205;BME280;20471;49.680;20.074;2023-02-05T05:37:41;98712.70;;;-5.00;73.39
34205;BME280;20471;49.680;20.074;2023-02-05T05:40:11;98716.56;;;-5.00;73.41
34205;BME280;20471;49.680;20.074;2023-02-05T05:42:56;98724.37;;;-4.98;73.34
34205;BME280;20471;49.680;20.074;2023-02-05T05:45:42;98730.80;;;-4.97;73.31
34205;BME280;20471;49.680;20.074;2023-02-05T05:48:10;98734.38;;;-4.98;73.36
34205;BME280;20471;49.680;20.074;2023-02-05T05:50:38;98733.08;;;-5.00;73.25
34205;BME280;20471;49.680;20.074;2023-02-05T05:53:06;98738.98;;;-4.99;73.39
34205;BME280;20471;49.680;20.074;2023-02-05T05:55:34;98746.45;;;-4.97;73.51
34205;BME280;20471;49.680;20.074;2023-02-05T05:58:02;98751.49;;;-4.96;73.32
34205;BME280;20471;49.680;20.074;2023-02-05T06:00:30;98758.10;;;-4.95;73.25
34205;BME280;20471;49.680;20.074;2023-02-05T06:02:58;98761.06;;;-4.95;73.15
34205;BME280;20471;49.680;20.074;2023-02-05T06:05:26;98764.30;;;-4.94;73.11
34205;BME280;20471;49.680;20.074;2023-02-05T06:07:54;98766.38;;;-4.93;73.10
34205;BME280;20471;49.680;20.074;2023-02-05T06:10:23;98774.27;;;-4.96;73.07
34205;BME280;20471;49.680;20.074;2023-02-05T06:12:51;98775.30;;;-4.98;72.90
34205;BME280;20471;49.680;20.074;2023-02-05T06:15:21;98781.59;;;-5.01;72.75
34205;BME280;20471;49.680;20.074;2023-02-05T06:17:49;98779.89;;;-5.02;72.78
34205;BME280;20471;49.680;20.074;2023-02-05T06:20:17;98778.51;;;-5.03;72.90
34205;BME280;20471;49.680;20.074;2023-02-05T06:22:45;98778.11;;;-5.08;72.73
34205;BME280;20471;49.680;20.074;2023-02-05T06:25:13;98775.64;;;-5.18;72.85
34205;BME280;20471;49.680;20.074;2023-02-05T06:27:42;98781.09;;;-5.22;72.87
34205;BME280;20471;49.680;20.074;2023-02-05T06:30:11;98787.17;;;-5.24;72.87
34205;BME280;20471;49.680;20.074;2023-02-05T06:32:39;98789.98;;;-5.31;72.77
34205;BME280;20471;49.680;20.074;2023-02-05T06:35:07;98797.73;;;-5.38;72.87
34205;BME280;20471;49.680;20.074;2023-02-05T06:37:35;98798.14;;;-5.42;72.98
34205;BME280;20471;49.680;20.074;2023-02-05T06:40:03;98804.02;;;-5.41;72.87
34205;BME280;20471;49.680;20.074;2023-02-05T06:42:32;98812.55;;;-5.39;73.01
34205;BME280;20471;49.680;20.074;2023-02-05T06:45:00;98815.30;;;-5.42;73.11
34205;BME280;20471;49.680;20.074;2023-02-05T06:47:28;98816.49;;;-5.45;73.08
34205;BME280;20471;49.680;20.074;2023-02-05T06:49:56;98817.27;;;-5.43;73.25
34205;BME280;20471;49.680;20.074;2023-02-05T06:52:24;98820.30;;;-5.36;73.44
34205;BME280;20471;49.680;20.074;2023-02-05T06:54:52;98821.58;;;-5.31;73.47
34205;BME280;20471;49.680;20.074;2023-02-05T06:57:20;98831.73;;;-5.30;73.34
34205;BME280;20471;49.680;20.074;2023-02-05T06:59:48;98835.44;;;-5.34;73.28
34205;BME280;20471;49.680;20.074;2023-02-05T07:02:16;98834.61;;;-5.35;73.44
34205;BME280;20471;49.680;20.074;2023-02-05T07:04:45;98838.40;;;-5.34;73.34
34205;BME280;20471;49.680;20.074;2023-02-05T07:07:13;98837.02;;;-5.34;73.40
34205;BME280;20471;49.680;20.074;2023-02-05T07:09:42;98832.95;;;-5.37;73.26
34205;BME280;20471;49.680;20.074;2023-02-05T07:12:11;98835.85;;;-5.39;73.29
34205;BME280;20471;49.680;20.074;2023-02-05T07:14:40;98834.05;;;-5.38;73.42
34205;BME280;20471;49.680;20.074;2023-02-05T07:17:08;98840.27;;;-5.36;73.37
34205;BME280;20471;49.680;20.074;2023-02-05T07:19:36;98836.78;;;-5.33;73.54
34205;BME280;20471;49.680;20.074;2023-02-05T07:22:04;98842.86;;;-5.28;73.47
34205;BME280;20471;49.680;20.074;2023-02-05T07:24:32;98842.04;;;-5.26;73.51
34205;BME280;20471;49.680;20.074;2023-02-05T07:27:00;98842.06;;;-5.26;73.40
34205;BME280;20471;49.680;20.074;2023-02-05T07:29:29;98840.13;;;-5.26;73.27
34205;BME280;20471;49.680;20.074;2023-02-05T07:31:57;98846.79;;;-5.23;73.56
34205;BME280;20471;49.680;20.074;2023-02-05T07:34:25;98857.11;;;-5.19;73.56
34205;BME280;20471;49.680;20.074;2023-02-05T07:36:53;98865.24;;;-5.17;73.30
34205;BME280;20471;49.680;20.074;2023-02-05T07:39:21;98868.62;;;-5.18;73.19
34205;BME280;20471;49.680;20.074;2023-02-05T07:41:49;98868.83;;;-5.21;73.21
34205;BME280;20471;49.680;20.074;2023-02-05T07:44:19;98876.79;;;-5.22;73.20
34205;BME280;20471;49.680;20.074;2023-02-05T07:46:48;98888.73;;;-5.26;73.24
34205;BME280;20471;49.680;20.074;2023-02-05T07:49:16;98892.37;;;-5.29;72.99
34205;BME280;20471;49.680;20.074;2023-02-05T07:51:44;98896.91;;;-5.32;73.02
34205;BME280;20471;49.680;20.074;2023-02-05T07:54:13;98898.19;;;-5.32;73.08
34205;BME280;20471;49.680;20.074;2023-02-05T07:56:41;98897.63;;;-5.32;73.15
34205;BME280;20471;49.680;20.074;2023-02-05T07:59:10;98898.14;;;-5.28;73.30
34205;BME280;20471;49.680;20.074;2023-02-05T08:01:38;98897.92;;;-5.24;73.27
34205;BME280;20471;49.680;20.074;2023-02-05T08:04:06;98894.77;;;-5.28;73.55
34205;BME280;20471;49.680;20.074;2023-02-05T08:06:34;98896.30;;;-5.23;73.56
34205;BME280;20471;49.680;20.074;2023-02-05T08:09:02;98900.66;;;-5.16;73.61
34205;BME280;20471;49.680;20.074;2023-02-05T08:11:30;98904.23;;;-5.10;73.55
34205;BME280;20471;49.680;20.074;2023-02-05T08:13:59;98903.45;;;-5.05;73.40
34205;BME280;20471;49.680;20.074;2023-02-05T08:16:28;98906.31;;;-4.99;73.51
34205;BME280;20471;49.680;20.074;2023-02-05T08:18:56;98902.80;;;-4.93;73.41
34205;BME280;20471;49.680;20.074;2023-02-05T08:21:24;98900.20;;;-4.86;73.40
34205;BME280;20471;49.680;20.074;2023-02-05T08:23:52;98902.63;;;-4.80;73.42
34205;BME280;20471;49.680;20.074;2023-02-05T08:26:23;98901.39;;;-4.76;73.39
34205;BME280;20471;49.680;20.074;2023-02-05T08:28:51;98903.27;;;-4.75;73.11
34205;BME280;20471;49.680;20.074;2023-02-05T08:31:19;98904.88;;;-4.82;72.94
34205;BME280;20471;49.680;20.074;2023-02-05T08:33:47;98899.34;;;-4.87;72.92
34205;BME280;20471;49.680;20.074;2023-02-05T08:36:16;98899.16;;;-4.87;72.92
34205;BME280;20471;49.680;20.074;2023-02-05T08:38:44;98904.08;;;-4.80;73.07
34205;BME280;20471;49.680;20.074;2023-02-05T08:41:12;98905.02;;;-4.75;72.99
34205;BME280;20471;49.680;20.074;2023-02-05T08:43:43;98907.98;;;-4.71;72.97
34205;BME280;20471;49.680;20.074;2023-02-05T08:46:13;98905.70;;;-4.75;72.89
34205;BME280;20471;49.680;20.074;2023-02-05T08:48:41;98905.08;;;-4.76;72.88
34205;BME280;20471;49.680;20.074;2023-02-05T08:51:10;98909.66;;;-4.73;72.91
34205;BME280;20471;49.680;20.074;2023-02-05T08:53:39;98910.84;;;-4.72;72.75
34205;BME280;20471;49.680;20.074;2023-02-05T08:56:08;98912.73;;;-4.67;72.68
34205;BME280;20471;49.680;20.074;2023-02-05T08:58:37;98911.58;;;-4.69;72.47
34205;BME280;20471;49.680;20.074;2023-02-05T09:01:13;98911.11;;;-4.71;72.51
34205;BME280;20471;49.680;20.074;2023-02-05T09:03:43;98906.90;;;-4.74;72.14
34205;BME280;20471;49.680;20.074;2023-02-05T09:06:14;98897.55;;;-4.83;72.13
34205;BME280;20471;49.680;20.074;2023-02-05T09:08:42;98894.27;;;-4.84;72.30
34205;BME280;20471;49.680;20.074;2023-02-05T09:11:10;98898.31;;;-4.78;72.70
34205;BME280;20471;49.680;20.074;2023-02-05T09:13:39;98901.08;;;-4.73;72.76
34205;BME280;20471;49.680;20.074;2023-02-05T09:16:09;98902.73;;;-4.68;73.03
34205;BME280;20471;49.680;20.074;2023-02-05T09:18:37;98902.55;;;-4.64;72.99
34205;BME280;20471;49.680;20.074;2023-02-05T09:21:07;98904.80;;;-4.60;72.91
34205;BME280;20471;49.680;20.074;2023-02-05T09:23:36;98906.40;;;-4.58;72.90
34205;BME280;20471;49.680;20.074;2023-02-05T09:26:04;98913.32;;;-4.59;73.05
34205;BME280;20471;49.680;20.074;2023-02-05T09:28:35;98913.41;;;-4.54;73.28
34205;BME280;20471;49.680;20.074;2023-02-05T09:31:06;98912.52;;;-4.47;73.43
34205;BME280;20471;49.680;20.074;2023-02-05T09:33:35;98916.58;;;-4.41;73.26
34205;BME280;20471;49.680;20.074;2023-02-05T09:36:07;98915.83;;;-4.34;73.26
34205;BME280;20471;49.680;20.074;2023-02-05T09:38:36;98915.58;;;-4.29;73.25
34205;BME280;20471;49.680;20.074;2023-02-05T09:41:09;98910.80;;;-4.25;72.96
34205;BME280;20471;49.680;20.074;2023-02-05T09:52:00;98922.77;;;-4.10;72.74
34205;BME280;20471;49.680;20.074;2023-02-05T09:54:39;98925.64;;;-4.07;72.76
34205;BME280;20471;49.680;20.074;2023-02-05T09:57:15;98923.27;;;-4.12;72.54
34205;BME280;20471;49.680;20.074;2023-02-05T09:59:45;98924.59;;;-4.23;72.45
34205;BME280;20471;49.680;20.074;2023-02-05T10:04:55;98929.02;;;-4.24;72.53
34205;BME280;20471;49.680;20.074;2023-02-05T10:07:28;98929.29;;;-4.22;72.45
34205;BME280;20471;49.680;20.074;2023-02-05T10:10:27;98929.09;;;-4.22;72.41
34205;BME280;20471;49.680;20.074;2023-02-05T10:13:29;98922.60;;;-4.25;72.28
34205;BME280;20471;49.680;20.074;2023-02-05T10:19:30;98926.92;;;-4.47;72.20
34205;BME280;20471;49.680;20.074;2023-02-05T10:22:19;98924.35;;;-4.58;72.19
34205;BME280;20471;49.680;20.074;2023-02-05T10:27:42;98921.63;;;-4.83;72.18
34205;BME280;20471;49.680;20.074;2023-02-05T10:30:35;98919.64;;;-4.89;72.36
34205;BME280;20471;49.680;20.074;2023-02-05T10:33:17;98915.74;;;-4.88;72.50
34205;BME280;20471;49.680;20.074;2023-02-05T10:35:56;98918.61;;;-4.79;72.82
34205;BME280;20471;49.680;20.074;2023-02-05T10:38:29;98918.77;;;-4.69;72.94
34205;BME280;20471;49.680;20.074;2023-02-05T10:44:26;98921.86;;;-4.64;72.51
34205;BME280;20471;49.680;20.074;2023-02-05T10:47:03;98922.36;;;-4.67;72.52
34205;BME280;20471;49.680;20.074;2023-02-05T10:49:49;98916.81;;;-4.68;72.32
34205;BME280;20471;49.680;20.074;2023-02-05T10:52:19;98922.44;;;-4.68;72.27
34205;BME280;20471;49.680;20.074;2023-02-05T10:54:48;98922.13;;;-4.73;71.85
34205;BME280;20471;49.680;20.074;2023-02-05T10:57:18;98919.45;;;-4.79;72.05
34205;BME280;20471;49.680;20.074;2023-02-05T11:00:00;98920.80;;;-4.78;72.23
34205;BME280;20471;49.680;20.074;2023-02-05T11:02:37;98922.48;;;-4.69;72.47
34205;BME280;20471;49.680;20.074;2023-02-05T11:07:46;98920.96;;;-4.67;72.11
34205;BME280;20471;49.680;20.074;2023-02-05T11:10:26;98923.70;;;-4.62;72.07
34205;BME280;20471;49.680;20.074;2023-02-05T11:12:56;98922.10;;;-4.62;71.87
34205;BME280;20471;49.680;20.074;2023-02-05T11:15:28;98920.55;;;-4.62;71.63
34205;BME280;20471;49.680;20.074;2023-02-05T11:18:03;98924.98;;;-4.57;71.85
34205;BME280;20471;49.680;20.074;2023-02-05T11:20:34;98923.67;;;-4.58;71.59
34205;BME280;20471;49.680;20.074;2023-02-05T11:23:23;98923.44;;;-4.64;71.47
34205;BME280;20471;49.680;20.074;2023-02-05T11:25:56;98923.45;;;-4.61;71.63
34205;BME280;20471;49.680;20.074;2023-02-05T11:28:29;98923.77;;;-4.57;71.80
34205;BME280;20471;49.680;20.074;2023-02-05T11:33:45;98918.85;;;-4.50;71.80
34205;BME280;20471;49.680;20.074;2023-02-05T11:36:23;98919.77;;;-4.51;71.51
34205;BME280;20471;49.680;20.074;2023-02-05T11:38:54;98916.71;;;-4.50;71.54
34205;BME280;20471;49.680;20.074;2023-02-05T11:41:39;98917.41;;;-4.50;71.56
34205;BME280;20471;49.680;20.074;2023-02-05T11:44:29;98917.86;;;-4.51;71.54
34205;BME280;20471;49.680;20.074;2023-02-05T11:47:01;98917.55;;;-4.49;71.71
34205;BME280;20471;49.680;20.074;2023-02-05T11:49:37;98915.60;;;-4.46;71.78
34205;BME280;20471;49.680;20.074;2023-02-05T11:52:10;98909.38;;;-4.41;71.68
34205;BME280;20471;49.680;20.074;2023-02-05T11:54:44;98908.45;;;-4.43;71.54
34205;BME280;20471;49.680;20.074;2023-02-05T12:00:01;98904.65;;;-4.54;71.47
34205;BME280;20471;49.680;20.074;2023-02-05T12:02:33;98900.75;;;-4.57;71.43
34205;BME280;20471;49.680;20.074;2023-02-05T12:10:22;98902.70;;;-4.67;71.45
34205;BME280;20471;49.680;20.074;2023-02-05T12:13:08;98900.91;;;-4.77;71.31
34205;BME280;20471;49.680;20.074;2023-02-05T12:16:10;98902.27;;;-4.86;71.63
34205;BME280;20471;49.680;20.074;2023-02-05T12:19:08;98898.44;;;-4.90;71.70
34205;BME280;20471;49.680;20.074;2023-02-05T12:22:12;98898.00;;;-4.92;71.57
34205;BME280;20471;49.680;20.074;2023-02-05T12:28:08;98896.34;;;-4.80;71.66
34205;BME280;20471;49.680;20.074;2023-02-05T12:47:34;98891.36;;;-4.23;71.25
34205;BME280;20471;49.680;20.074;2023-02-05T12:58:56;98895.73;;;-4.04;70.92
34205;BME280;20471;49.680;20.074;2023-02-05T13:01:51;98892.83;;;-3.95;71.01
34205;BME280;20471;49.680;20.074;2023-02-05T13:04:31;98886.16;;;-3.89;70.85
34205;BME280;20471;49.680;20.074;2023-02-05T13:09:52;98885.13;;;-3.72;70.88
34205;BME280;20471;49.680;20.074;2023-02-05T13:12:26;98882.31;;;-3.62;70.83
34205;BME280;20471;49.680;20.074;2023-02-05T13:15:12;98876.14;;;-3.56;70.70
34205;BME280;20471;49.680;20.074;2023-02-05T13:20:27;98872.25;;;-3.47;70.22
34205;BME280;20471;49.680;20.074;2023-02-05T13:23:11;98874.76;;;-3.44;70.18
34205;BME280;20471;49.680;20.074;2023-02-05T13:26:00;98877.69;;;-3.46;69.94
34205;BME280;20471;49.680;20.074;2023-02-05T13:29:07;98879.30;;;-3.52;69.82
34205;BME280;20471;49.680;20.074;2023-02-05T13:31:41;98881.74;;;-3.49;69.92
34205;BME280;20471;49.680;20.074;2023-02-05T13:34:16;98882.33;;;-3.44;70.06
34205;BME280;20471;49.680;20.074;2023-02-05T13:37:09;98878.73;;;-3.40;69.93
34205;BME280;20471;49.680;20.074;2023-02-05T13:42:59;98882.59;;;-3.34;69.81
34205;BME280;20471;49.680;20.074;2023-02-05T13:51:05;98887.90;;;-3.25;69.79
34205;BME280;20471;49.680;20.074;2023-02-05T13:56:41;98891.99;;;-3.29;69.43
34205;BME280;20471;49.680;20.074;2023-02-05T13:59:14;98895.45;;;-3.34;69.43
34205;BME280;20471;49.680;20.074;2023-02-05T14:01:55;98893.91;;;-3.38;69.34
34205;BME280;20471;49.680;20.074;2023-02-05T14:04:45;98889.63;;;-3.43;69.19
34205;BME280;20471;49.680;20.074;2023-02-05T14:10:27;98885.27;;;-3.58;68.76
34205;BME280;20471;49.680;20.074;2023-02-05T14:15:41;98886.52;;;-3.89;68.54
34205;BME280;20471;49.680;20.074;2023-02-05T14:24:26;98889.94;;;-4.32;68.60
34205;BME280;20471;49.680;20.074;2023-02-05T14:26:56;98890.46;;;-4.39;68.73
34205;BME280;20471;49.680;20.074;2023-02-05T14:29:45;98893.16;;;-4.37;68.97
34205;BME280;20471;49.680;20.074;2023-02-05T14:35:29;98894.02;;;-4.30;69.28
34205;BME280;20471;49.680;20.074;2023-02-05T14:38:01;98894.11;;;-4.22;69.33
34205;BME280;20471;49.680;20.074;2023-02-05T14:40:34;98896.85;;;-4.17;69.33
34205;BME280;20471;49.680;20.074;2023-02-05T14:43:31;98898.69;;;-4.16;69.32
34205;BME280;20471;49.680;20.074;2023-02-05T14:46:28;98897.24;;;-4.19;69.36
34205;BME280;20471;49.680;20.074;2023-02-05T14:48:54;98899.89;;;-4.21;69.33
34205;BME280;20471;49.680;20.074;2023-02-05T14:51:35;98900.23;;;-4.24;69.48
34205;BME280;20471;49.680;20.074;2023-02-05T14:54:19;98902.14;;;-4.21;69.57
34205;BME280;20471;49.680;20.074;2023-02-05T14:57:08;98901.34;;;-4.19;69.64
34205;BME280;20471;49.680;20.074;2023-02-05T15:00:06;98903.77;;;-4.19;69.63
34205;BME280;20471;49.680;20.074;2023-02-05T15:05:48;98906.64;;;-4.20;69.86
34205;BME280;20471;49.680;20.074;2023-02-05T15:08:40;98911.73;;;-4.20;69.76
34205;BME280;20471;49.680;20.074;2023-02-05T15:14:55;98916.65;;;-4.36;69.88
34205;BME280;20471;49.680;20.074;2023-02-05T15:17:48;98918.98;;;-4.37;70.03
34205;BME280;20471;49.680;20.074;2023-02-05T15:20:21;98923.23;;;-4.34;70.07
34205;BME280;20471;49.680;20.074;2023-02-05T15:22:55;98927.96;;;-4.31;70.11
34205;BME280;20471;49.680;20.074;2023-02-05T15:25:32;98929.07;;;-4.28;70.08
34205;BME280;20471;49.680;20.074;2023-02-05T15:28:23;98930.64;;;-4.28;70.25